createdAt,value
2022-12-26T00:01:25.758Z,9.88
2022-12-26T00:06:26.931Z,9.05
2022-12-26T00:11:30.449Z,7.63
2022-12-26T00:14:04.399Z,7.10
2022-12-26T00:16:34.325Z,7.55
2022-12-26T00:19:05.024Z,6.93
2022-12-26T00:21:33.919Z,7.53
2022-12-26T00:24:04.713Z,7.18
2022-12-26T00:26:35.936Z,6.53
2022-12-26T00:29:04.427Z,6.35
2022-12-26T00:31:38.407Z,6.20
2022-12-26T00:34:08.202Z,6.13
2022-12-26T00:36:38.241Z,6.10
2022-12-26T00:39:06.302Z,5.10
2022-12-26T00:41:34.741Z,6.15
2022-12-26T00:44:05.249Z,5.90
2022-12-26T00:46:35.276Z,6.45
2022-12-26T00:49:04.510Z,7.18
2022-12-26T00:51:34.166Z,6.13
2022-12-26T00:54:02.409Z,6.30
2022-12-26T00:56:30.463Z,6.88
2022-12-26T00:59:00.748Z,6.35
2022-12-26T01:01:30.905Z,6.25
2022-12-26T01:03:59.608Z,5.97
2022-12-26T01:06:27.605Z,6.13
2022-12-26T01:08:57.052Z,6.47
2022-12-26T01:11:38.894Z,7.32
2022-12-26T01:14:08.781Z,9.10
2022-12-26T01:16:36.878Z,7.93
2022-12-26T01:19:05.277Z,8.52
2022-12-26T01:21:33.827Z,9.10
2022-12-26T01:24:05.699Z,9.57
2022-12-26T01:26:33.603Z,10.00
2022-12-26T01:29:01.493Z,9.80
2022-12-26T01:31:29.569Z,10.88
2022-12-26T01:34:01.940Z,9.95
2022-12-26T01:36:29.943Z,11.57
2022-12-26T01:38:57.958Z,9.35
2022-12-26T01:41:27.997Z,10.40
2022-12-26T01:43:58.578Z,11.05
2022-12-26T01:46:33.979Z,11.23
2022-12-26T01:49:07.946Z,11.55
2022-12-26T01:51:45.897Z,11.50
2022-12-26T01:54:40.002Z,11.63
2022-12-26T01:57:07.963Z,11.57
2022-12-26T01:59:40.511Z,12.30
2022-12-26T02:02:10.072Z,11.88
2022-12-26T02:04:59.973Z,12.20
2022-12-26T02:07:33.609Z,12.38
2022-12-26T02:10:01.860Z,11.88
2022-12-26T02:12:38.439Z,12.52
2022-12-26T02:15:11.940Z,12.93
2022-12-26T02:17:41.570Z,12.57
2022-12-26T02:20:19.381Z,11.88
2022-12-26T02:23:10.591Z,13.30
2022-12-26T02:26:17.975Z,14.75
2022-12-26T02:29:21.836Z,16.98
2022-12-26T02:32:01.473Z,17.25
2022-12-26T02:34:40.385Z,17.27
2022-12-26T02:37:24.132Z,16.77
2022-12-26T02:40:05.234Z,16.85
2022-12-26T02:42:50.347Z,15.90
2022-12-26T02:45:44.749Z,16.75
2022-12-26T02:48:21.360Z,16.23
2022-12-26T02:51:20.973Z,15.90
2022-12-26T02:54:17.442Z,15.65
2022-12-26T02:57:08.775Z,14.15
2022-12-26T03:00:04.706Z,14.93
2022-12-26T03:02:56.652Z,15.32
2022-12-26T03:05:49.656Z,14.25
2022-12-26T03:08:43.021Z,13.68
2022-12-26T03:11:28.963Z,12.68
2022-12-26T03:14:06.487Z,12.98
2022-12-26T03:16:53.106Z,11.80
2022-12-26T03:19:23.470Z,10.13
2022-12-26T03:24:23.690Z,9.57
2022-12-26T03:26:54.385Z,8.77
2022-12-26T03:29:42.180Z,8.23
2022-12-26T03:32:12.935Z,8.25
2022-12-26T03:34:45.507Z,6.50
2022-12-26T03:37:50.368Z,4.57
2022-12-26T03:40:48.059Z,4.03
2022-12-26T03:43:43.429Z,3.53
2022-12-26T03:46:37.209Z,3.80
2022-12-26T03:49:28.231Z,3.53
2022-12-26T03:52:20.631Z,3.70
2022-12-26T03:55:14.082Z,3.40
2022-12-26T03:58:07.054Z,3.70
2022-12-26T04:00:53.978Z,3.40
2022-12-26T04:03:42.363Z,3.35
2022-12-26T04:06:36.174Z,3.30
2022-12-26T04:09:27.327Z,4.97
2022-12-26T04:12:21.552Z,4.93
2022-12-26T04:15:13.866Z,4.00
2022-12-26T04:18:06.407Z,3.90
2022-12-26T04:20:40.913Z,4.88
2022-12-26T04:23:32.107Z,5.47
2022-12-26T04:26:25.029Z,5.38
2022-12-26T04:29:11.860Z,6.32
2022-12-26T04:32:06.292Z,7.30
2022-12-26T04:35:00.706Z,9.85
2022-12-26T04:37:52.327Z,9.10
2022-12-26T04:40:44.880Z,8.60
2022-12-26T04:43:49.125Z,9.05
2022-12-26T04:46:23.673Z,9.93
2022-12-26T04:49:12.071Z,9.82
2022-12-26T04:51:40.761Z,10.07
2022-12-26T04:54:08.990Z,11.38
2022-12-26T04:56:36.944Z,11.35
2022-12-26T04:59:06.433Z,11.43
2022-12-26T05:01:53.464Z,11.60
2022-12-26T05:04:39.080Z,12.27
2022-12-26T05:07:30.302Z,12.68
2022-12-26T05:09:58.281Z,12.32
2022-12-26T05:12:26.272Z,12.15
2022-12-26T05:14:54.475Z,11.65
2022-12-26T05:17:41.218Z,11.63
2022-12-26T05:20:44.288Z,12.52
2022-12-26T05:23:37.149Z,12.57
2022-12-26T05:26:23.682Z,12.48
2022-12-26T05:28:58.834Z,12.63
2022-12-26T05:31:32.959Z,13.85
2022-12-26T05:34:05.847Z,12.55
2022-12-26T05:36:38.415Z,12.27
2022-12-26T05:39:07.553Z,12.55
2022-12-26T05:41:37.337Z,13.48
2022-12-26T05:44:06.275Z,12.07
2022-12-26T05:46:34.692Z,12.60
2022-12-26T05:49:07.825Z,13.77
2022-12-26T05:51:38.915Z,13.55
2022-12-26T05:54:07.115Z,12.90
2022-12-26T05:56:35.090Z,14.93
2022-12-26T05:59:03.328Z,14.70
2022-12-26T06:01:31.918Z,15.25
2022-12-26T06:04:05.820Z,14.57
2022-12-26T06:06:35.239Z,15.85
2022-12-26T06:09:03.240Z,16.30
2022-12-26T06:11:31.553Z,16.98
2022-12-26T06:14:00.088Z,16.50
2022-12-26T06:16:28.226Z,17.23
2022-12-26T06:18:56.302Z,16.85
2022-12-26T06:21:25.200Z,17.13
2022-12-26T06:23:54.674Z,16.67
2022-12-26T06:26:22.734Z,17.60
2022-12-26T06:28:50.759Z,16.10
2022-12-26T06:31:21.679Z,17.42
2022-12-26T06:33:51.598Z,17.45
2022-12-26T06:36:21.733Z,16.35
2022-12-26T06:38:50.835Z,15.20
2022-12-26T06:41:22.574Z,16.05
2022-12-26T06:43:50.821Z,13.77
2022-12-26T06:46:21.096Z,12.93
2022-12-26T06:51:20.070Z,10.48
2022-12-26T06:53:49.253Z,10.15
2022-12-26T06:56:18.980Z,8.38
2022-12-26T06:58:48.887Z,8.75
2022-12-26T07:01:19.821Z,7.97
2022-12-26T07:03:51.572Z,8.70
2022-12-26T07:06:25.027Z,8.82
2022-12-26T07:08:53.718Z,8.52
2022-12-26T07:11:25.315Z,8.77
2022-12-26T07:13:56.010Z,8.60
2022-12-26T07:16:24.997Z,9.05
2022-12-26T07:18:56.188Z,8.80
2022-12-26T07:21:25.476Z,10.30
2022-12-26T07:23:55.539Z,9.23
2022-12-26T07:26:24.217Z,9.18
2022-12-26T07:28:57.168Z,9.05
2022-12-26T07:31:26.460Z,9.68
2022-12-26T07:33:56.235Z,9.38
2022-12-26T07:36:25.153Z,9.40
2022-12-26T07:38:53.474Z,10.07
2022-12-26T07:41:39.216Z,10.13
2022-12-26T07:44:09.963Z,9.75
2022-12-26T07:46:38.228Z,11.18
2022-12-26T07:49:06.523Z,11.43
2022-12-26T07:51:34.941Z,11.32
2022-12-26T07:54:08.865Z,12.30
2022-12-26T07:56:41.121Z,12.65
2022-12-26T08:01:41.229Z,13.68
2022-12-26T08:04:09.545Z,13.88
2022-12-26T08:06:38.042Z,13.75
2022-12-26T08:09:06.437Z,14.85
2022-12-26T08:11:36.415Z,15.05
2022-12-26T08:14:04.581Z,13.60
2022-12-26T08:16:34.200Z,13.50
2022-12-26T08:19:04.395Z,12.77
2022-12-26T08:24:00.795Z,13.15
2022-12-26T08:26:29.197Z,13.63
2022-12-26T08:28:58.118Z,12.80
2022-12-26T08:34:00.473Z,14.27
2022-12-26T08:36:30.527Z,13.80
2022-12-26T08:38:59.223Z,13.50
2022-12-26T08:41:27.230Z,13.82
2022-12-26T08:46:43.554Z,12.05
2022-12-26T08:49:13.570Z,13.68
2022-12-26T08:51:41.565Z,11.77
2022-12-26T08:54:09.656Z,10.38
2022-12-26T08:56:37.640Z,9.95
2022-12-26T08:59:05.751Z,10.63
2022-12-26T09:01:41.046Z,11.15
2022-12-26T09:04:09.424Z,10.65
2022-12-26T09:06:42.158Z,10.43
2022-12-26T09:09:12.848Z,10.93
2022-12-26T09:11:41.701Z,10.45
2022-12-26T09:14:10.295Z,9.57
2022-12-26T09:16:49.554Z,10.32
2022-12-26T09:19:19.097Z,8.70
2022-12-26T09:21:49.293Z,9.20
2022-12-26T09:24:21.390Z,8.23
2022-12-26T09:26:49.711Z,8.55
2022-12-26T09:29:17.798Z,8.52
2022-12-26T09:31:45.947Z,7.75
2022-12-26T09:34:14.057Z,7.03
2022-12-26T09:36:42.085Z,6.88
2022-12-26T09:39:15.463Z,5.50
2022-12-26T09:41:55.311Z,5.65
2022-12-26T09:44:28.796Z,4.97
2022-12-26T09:47:08.843Z,5.10
2022-12-26T09:49:43.400Z,5.32
2022-12-26T09:52:19.380Z,5.32
2022-12-26T09:54:53.933Z,4.30
2022-12-26T09:57:27.266Z,4.82
2022-12-26T10:00:01.021Z,4.40
2022-12-26T10:02:30.859Z,4.55
2022-12-26T10:04:59.016Z,4.40
2022-12-26T10:07:33.218Z,4.13
2022-12-26T10:10:10.420Z,3.97
2022-12-26T10:12:48.037Z,3.63
2022-12-26T10:15:35.895Z,4.07
2022-12-26T10:18:17.095Z,3.90
2022-12-26T10:20:58.340Z,3.60
2022-12-26T10:23:33.550Z,3.53
2022-12-26T10:26:11.435Z,3.15
2022-12-26T10:28:46.932Z,3.17
2022-12-26T10:31:21.094Z,3.08
2022-12-26T10:33:55.657Z,3.15
2022-12-26T10:36:32.323Z,3.50
2022-12-26T10:39:02.388Z,3.40
2022-12-26T10:41:40.262Z,3.60
2022-12-26T10:44:12.783Z,3.40
2022-12-26T10:46:56.060Z,3.53
2022-12-26T10:49:29.997Z,3.35
2022-12-26T10:52:00.344Z,3.58
2022-12-26T10:54:30.436Z,3.55
2022-12-26T10:57:02.027Z,3.13
2022-12-26T10:59:48.514Z,3.20
2022-12-26T11:02:25.064Z,4.75
2022-12-26T11:05:16.093Z,3.47
2022-12-26T11:07:53.550Z,2.60
2022-12-26T11:10:29.243Z,3.25
2022-12-26T11:13:03.130Z,3.00
2022-12-26T11:15:39.072Z,2.13
2022-12-26T11:18:16.186Z,2.75
2022-12-26T11:20:45.321Z,3.03
2022-12-26T11:23:24.415Z,2.85
2022-12-26T11:25:54.937Z,2.42
2022-12-26T11:28:31.582Z,2.85
2022-12-26T11:31:11.393Z,2.45
2022-12-26T11:33:45.055Z,2.50
2022-12-26T11:36:22.122Z,2.58
2022-12-26T11:38:54.454Z,2.78
2022-12-26T11:41:39.996Z,2.47
2022-12-26T11:44:27.510Z,1.90
2022-12-26T11:47:03.050Z,2.25
2022-12-26T11:49:37.059Z,2.20
2022-12-26T11:52:34.553Z,2.08
2022-12-26T11:55:02.725Z,2.17
2022-12-26T11:57:32.995Z,1.95
2022-12-26T12:00:17.659Z,2.53
2022-12-26T12:02:45.931Z,1.92
2022-12-26T12:05:22.175Z,2.35
2022-12-26T12:08:04.681Z,2.05
2022-12-26T12:11:12.352Z,1.85
2022-12-26T12:13:53.421Z,2.10
2022-12-26T12:16:39.237Z,2.15
2022-12-26T12:19:20.025Z,1.80
2022-12-26T12:22:00.734Z,1.80
2022-12-26T12:24:40.034Z,1.70
2022-12-26T12:27:14.664Z,1.58
2022-12-26T12:30:14.756Z,1.63
2022-12-26T12:32:58.823Z,1.67
2022-12-26T12:35:40.799Z,1.67
2022-12-26T12:38:25.707Z,1.92
2022-12-26T12:41:02.414Z,1.50
2022-12-26T12:43:42.719Z,1.92
2022-12-26T12:49:02.242Z,1.60
2022-12-26T12:51:38.690Z,2.10
2022-12-26T12:54:39.890Z,3.45
2022-12-26T12:57:16.750Z,2.63
2022-12-26T13:00:01.238Z,1.42
2022-12-26T13:02:33.761Z,1.88
2022-12-26T13:05:15.733Z,1.40
2022-12-26T13:07:49.118Z,1.75
2022-12-26T13:10:23.691Z,2.33
2022-12-26T13:12:54.458Z,2.33
2022-12-26T13:15:32.782Z,2.30
2022-12-26T13:18:05.112Z,2.70
2022-12-26T13:20:41.485Z,2.20
2022-12-26T13:23:37.051Z,2.25
2022-12-26T13:26:10.812Z,2.20
2022-12-26T13:28:50.151Z,2.30
2022-12-26T13:31:18.683Z,1.75
2022-12-26T13:33:47.509Z,1.80
2022-12-26T13:36:45.493Z,2.58
2022-12-26T13:39:31.661Z,2.72
2022-12-26T13:42:22.342Z,2.00
2022-12-26T13:44:53.659Z,1.67
2022-12-26T13:47:36.438Z,1.52
2022-12-26T13:50:42.096Z,1.80
2022-12-26T13:53:29.845Z,2.20
2022-12-26T13:55:59.284Z,1.63
2022-12-26T13:58:54.700Z,1.67
2022-12-26T14:01:37.453Z,1.75
2022-12-26T14:04:35.124Z,1.67
2022-12-26T14:07:16.067Z,1.92
2022-12-26T14:09:58.320Z,1.85
2022-12-26T14:12:48.282Z,2.05
2022-12-26T14:15:46.799Z,2.38
2022-12-26T14:18:26.299Z,3.28
2022-12-26T14:21:10.391Z,3.35
2022-12-26T14:23:47.305Z,2.95
2022-12-26T14:26:29.019Z,2.63
2022-12-26T14:29:06.354Z,2.90
2022-12-26T14:31:43.184Z,2.30
2022-12-26T14:34:24.449Z,3.70
2022-12-26T14:36:58.622Z,2.78
2022-12-26T14:39:36.792Z,3.00
2022-12-26T14:42:39.511Z,2.92
2022-12-26T14:45:34.844Z,4.03
2022-12-26T14:48:03.108Z,3.08
2022-12-26T14:50:44.695Z,2.13
2022-12-26T14:53:29.785Z,1.90
2022-12-26T14:55:59.578Z,1.95
2022-12-26T14:58:38.243Z,1.35
2022-12-26T15:01:47.391Z,2.13
2022-12-26T15:05:00.141Z,1.40
2022-12-26T15:07:58.624Z,2.05
2022-12-26T15:10:47.424Z,2.80
2022-12-26T15:13:53.389Z,2.65
2022-12-26T15:16:32.699Z,1.45
2022-12-26T15:19:39.271Z,2.03
2022-12-26T15:22:38.467Z,6.20
2022-12-26T15:25:32.168Z,2.10
2022-12-26T15:28:31.262Z,1.48
2022-12-26T15:31:20.464Z,1.88
2022-12-26T15:33:57.249Z,2.72
2022-12-26T15:36:36.068Z,1.88
2022-12-26T15:39:14.896Z,1.67
2022-12-26T15:41:48.237Z,1.90
2022-12-26T15:44:25.890Z,1.98
2022-12-26T15:47:06.441Z,1.25
2022-12-26T15:49:55.614Z,2.03
2022-12-26T15:52:34.840Z,1.42
2022-12-26T15:55:26.266Z,1.65
2022-12-26T15:57:59.561Z,1.88
2022-12-26T16:00:31.166Z,1.75
2022-12-26T16:03:23.401Z,1.73
2022-12-26T16:06:00.257Z,1.90
2022-12-26T16:08:49.173Z,2.00
2022-12-26T16:11:22.462Z,3.08
2022-12-26T16:13:57.514Z,3.67
2022-12-26T16:16:28.299Z,1.98
2022-12-26T16:18:58.350Z,2.85
2022-12-26T16:21:47.216Z,2.25
2022-12-26T16:24:19.839Z,3.97
2022-12-26T16:26:48.282Z,2.20
2022-12-26T16:29:21.626Z,1.83
2022-12-26T16:31:49.481Z,2.50
2022-12-26T16:34:21.537Z,2.08
2022-12-26T16:36:51.137Z,2.10
2022-12-26T16:39:24.144Z,2.53
2022-12-26T16:42:01.216Z,3.00
2022-12-26T16:44:33.355Z,4.60
2022-12-26T16:47:03.043Z,10.32
2022-12-26T16:49:33.617Z,82.22
2022-12-26T16:52:02.043Z,4.57
2022-12-26T16:54:38.697Z,2.72
2022-12-26T16:57:11.053Z,2.65
2022-12-26T16:59:45.355Z,2.85
2022-12-26T17:02:21.086Z,2.08
2022-12-26T17:05:00.196Z,2.95
2022-12-26T17:07:29.055Z,2.78
2022-12-26T17:10:00.618Z,2.70
2022-12-26T17:12:32.266Z,1.75
2022-12-26T17:15:02.092Z,2.95
2022-12-26T17:17:33.500Z,2.20
2022-12-26T17:20:33.936Z,2.80
2022-12-26T17:23:21.805Z,3.40
2022-12-26T17:25:50.971Z,2.97
2022-12-26T17:28:24.199Z,3.97
2022-12-26T17:30:54.365Z,3.33
2022-12-26T17:38:48.428Z,1.70
2022-12-26T17:41:17.955Z,1.97
2022-12-26T17:43:47.050Z,2.20
2022-12-26T17:46:17.334Z,2.42
2022-12-26T17:51:17.519Z,2.20
2022-12-26T17:53:49.762Z,2.00
2022-12-26T17:56:21.222Z,2.97
2022-12-26T17:58:49.610Z,2.35
2022-12-26T18:01:21.575Z,2.08
2022-12-26T18:03:52.028Z,3.83
2022-12-26T18:06:23.056Z,2.70
2022-12-26T18:08:50.930Z,1.88
2022-12-26T18:11:18.806Z,2.22
2022-12-26T18:13:46.935Z,2.15
2022-12-26T18:16:17.900Z,2.30
2022-12-26T18:18:47.883Z,1.95
2022-12-26T18:21:17.110Z,2.15
2022-12-26T18:23:46.479Z,2.40
2022-12-26T18:26:19.854Z,2.70
2022-12-26T18:28:49.999Z,2.08
2022-12-26T18:31:18.195Z,2.40
2022-12-26T18:33:46.145Z,2.80
2022-12-26T18:36:15.245Z,3.42
2022-12-26T18:38:43.347Z,2.30
2022-12-26T18:41:15.243Z,2.92
2022-12-26T18:43:43.235Z,2.03
2022-12-26T18:46:16.400Z,2.65
2022-12-26T18:48:44.351Z,2.80
2022-12-26T18:51:12.469Z,3.67
2022-12-26T18:53:40.529Z,4.05
2022-12-26T18:56:13.298Z,4.03
2022-12-26T18:58:42.851Z,3.70
2022-12-26T19:01:13.877Z,5.13
2022-12-26T19:03:42.172Z,3.55
2022-12-26T19:06:14.263Z,3.15
2022-12-26T19:08:42.660Z,2.60
2022-12-26T19:11:13.844Z,2.40
2022-12-26T19:13:43.590Z,2.83
2022-12-26T19:16:12.084Z,4.00
2022-12-26T19:18:40.083Z,4.43
2022-12-26T19:21:12.962Z,4.75
2022-12-26T19:23:41.285Z,3.10
2022-12-26T19:26:10.624Z,3.00
2022-12-26T19:28:39.354Z,4.17
2022-12-26T19:31:09.985Z,4.10
2022-12-26T19:33:38.264Z,4.13
2022-12-26T19:36:07.605Z,3.53
2022-12-26T19:38:36.146Z,2.80
2022-12-26T19:41:05.110Z,3.58
2022-12-26T19:43:33.323Z,4.32
2022-12-26T19:46:02.092Z,4.07
2022-12-26T19:48:32.112Z,3.42
2022-12-26T19:51:01.527Z,3.60
2022-12-26T19:53:29.665Z,2.77
2022-12-26T19:55:57.847Z,2.97
2022-12-26T19:58:26.259Z,2.58
2022-12-26T20:00:54.351Z,5.38
2022-12-26T20:03:22.521Z,5.82
2022-12-26T20:05:51.983Z,5.80
2022-12-26T20:08:20.556Z,5.18
2022-12-26T20:10:48.654Z,4.82
2022-12-26T20:13:16.667Z,5.80
2022-12-26T20:15:44.597Z,4.43
2022-12-26T20:18:15.064Z,3.65
2022-12-26T20:20:43.384Z,4.15
2022-12-26T20:23:12.717Z,3.60
2022-12-26T20:25:40.617Z,4.13
2022-12-26T20:28:08.635Z,3.22
2022-12-26T20:30:36.689Z,4.03
2022-12-26T20:33:04.663Z,4.80
2022-12-26T20:35:32.764Z,3.47
2022-12-26T20:38:00.592Z,4.20
2022-12-26T20:40:30.059Z,3.97
2022-12-26T20:42:58.048Z,4.28
2022-12-26T20:45:26.087Z,3.85
2022-12-26T20:47:54.022Z,3.17
2022-12-26T20:50:22.829Z,3.17
2022-12-26T20:52:50.664Z,3.70
2022-12-26T20:55:29.488Z,3.10
2022-12-26T20:57:57.730Z,4.07
2022-12-26T21:00:25.797Z,2.65
2022-12-26T21:02:57.853Z,2.90
2022-12-26T21:05:27.447Z,3.40
2022-12-26T21:07:56.897Z,3.08
2022-12-26T21:10:30.436Z,2.87
2022-12-26T21:12:59.432Z,3.28
2022-12-26T21:15:28.535Z,3.38
2022-12-26T21:18:04.027Z,3.60
2022-12-26T21:20:33.733Z,3.42
2022-12-26T21:23:03.348Z,3.70
2022-12-26T21:25:35.954Z,3.30
2022-12-26T21:28:05.757Z,2.83
2022-12-26T21:30:34.522Z,3.43
2022-12-26T21:33:06.769Z,3.53
2022-12-26T21:35:38.751Z,3.38
2022-12-26T21:38:07.600Z,3.33
2022-12-26T21:40:38.897Z,3.28
2022-12-26T21:43:08.148Z,3.35
2022-12-26T21:45:38.453Z,2.95
2022-12-26T21:48:07.671Z,4.10
2022-12-26T21:50:38.099Z,3.25
2022-12-26T21:53:07.554Z,3.53
2022-12-26T21:55:38.974Z,3.20
2022-12-26T21:58:07.743Z,3.95
2022-12-26T22:00:36.212Z,3.90
2022-12-26T22:03:23.281Z,10.55
2022-12-26T22:05:51.768Z,9.90
2022-12-26T22:08:20.337Z,6.65
2022-12-26T22:11:21.817Z,4.88
2022-12-26T22:13:50.210Z,4.18
2022-12-26T22:16:19.963Z,4.20
2022-12-26T22:18:49.080Z,3.60
2022-12-26T22:21:20.283Z,3.40
2022-12-26T22:23:50.548Z,4.00
2022-12-26T22:28:50.364Z,3.05
2022-12-26T22:31:21.013Z,2.47
2022-12-26T22:33:49.844Z,2.83
2022-12-26T22:36:21.219Z,2.30
2022-12-26T22:38:52.035Z,2.72
2022-12-26T22:41:21.593Z,3.08
2022-12-26T22:43:51.098Z,3.38
2022-12-26T22:46:20.504Z,4.20
2022-12-26T22:48:48.599Z,4.30
2022-12-26T22:51:18.815Z,3.42
2022-12-26T22:56:15.380Z,3.13
2022-12-26T22:58:45.443Z,3.17
2022-12-26T23:03:43.054Z,2.85
2022-12-26T23:06:20.811Z,2.85
2022-12-26T23:08:50.213Z,3.05
2022-12-26T23:11:19.002Z,3.10
2022-12-26T23:13:49.382Z,3.17
2022-12-26T23:16:27.254Z,2.83
2022-12-26T23:19:22.459Z,3.70
2022-12-26T23:21:51.636Z,3.33
2022-12-26T23:24:21.762Z,3.15
2022-12-26T23:29:40.848Z,4.50
2022-12-26T23:32:11.617Z,4.05
